Flight Track Log - Related Links

Times and Time Zones

All times are in EDT time to prevent confusion due to time zone crossing. See the NKT7 flight status page for this flight to view local times or setup timezone preferences in your user account.

Time Position Orientation Groundspeed Altitude Reporting Facility
EDT Latitude Longitude Course Direction KTS MPH feet Rate Location/Type
Thu 11:19:09 AM 42.9194 -85.4972 16° North 110 127 2,700  Level Chicago Center
Thu 11:20:10 AM 42.9650 -85.4811 15° North 127 146 3,400 780 Climbing Chicago Center
Thu 11:21:12 AM 43.0033 -85.4633 19° North 140 161 4,300 871 Climbing Chicago Center
Thu 11:22:14 AM 43.0408 -85.4519 13° North 142 163 5,200 780 Climbing Chicago Center
Thu 11:23:15 AM 43.0786 -85.4389 14° North 141 162 5,900 683 Climbing Chicago Center
Thu 11:24:00 AM 43.1635 -85.4046 16° North  Level FlightAware Approximate
Thu 11:24:17 AM 43.1233 -85.4200 17° North 161 185 6,600  Level Chicago Center
Thu 11:25:18 AM 43.1703 -85.4014 16° North 173 199 7,200 629 Climbing Chicago Center
Thu 11:26:21 AM 43.2181 -85.3867 13° North 175 201 7,900 774 Climbing Chicago Center
Thu 11:27:22 AM 43.2753 -85.3661 15° North 175 201 8,800 787 Climbing Chicago Center
Thu 11:28:23 AM 43.3192 -85.3464 18° North 171 197 9,500 829 Climbing Chicago Center
Thu 11:29:25 AM 43.3622 -85.3325 13° North 162 186 10,500 878 Climbing Chicago Center
Thu 11:30:26 AM 43.4031 -85.3192 13° North 154 177 11,300 780 Climbing Chicago Center
Thu 11:31:28 AM 43.4447 -85.3025 16° North 154 177 12,100 774 Climbing Chicago Center
Thu 11:32:30 AM 43.4853 -85.2872 15° North 154 177 12,900 439 Climbing Chicago Center
Thu 11:33:31 AM 43.5425 -85.2661 15° North 178 205 13,000 49 Climbing Chicago Center
Thu 11:34:33 AM 43.5969 -85.2475 14° North 200 230 13,000 48 Level Chicago Center
Thu 11:35:35 AM 43.6511 -85.2253 17° North 201 231 13,100  Climbing Chicago Center
Thu 11:36:37 AM 43.7064 -85.2056 14° North 203 234 13,000  Descending Chicago Center
Thu 11:37:38 AM 43.7614 -85.1842 16° North 203 234 13,100  Climbing Chicago Center
Thu 11:38:40 AM 43.8169 -85.1608 17° North 205 236 13,000 -97 Descending Chicago Center
Thu 11:39:42 AM 43.8811 -85.1394 14° North 207 238 12,900  Descending Chicago Center
Thu 11:40:44 AM 43.9386 -85.1186 15° North 207 238 13,000  Climbing Minneapolis Center
Thu 11:41:46 AM 43.9922 -85.0958 17° North 207 238 12,900 -194 Descending Minneapolis Center
Thu 11:42:48 AM 44.0456 -85.0783 13° North 207 238 12,600 -488 Descending Minneapolis Center
Thu 11:43:49 AM 44.1042 -85.0564 15° North 212 244 11,900 -732 Descending Minneapolis Center
Thu 11:44:51 AM 44.1764 -85.0261 17° North 224 258 11,100 -774 Descending Minneapolis Center
Thu 11:45:53 AM 44.2378 -85.0067 13° North 224 258 10,300 -732 Descending Minneapolis Center
Thu 11:46:54 AM 44.2975 -84.9819 17° North 224 258 9,600 -634 Descending Minneapolis Center
Thu 11:47:56 AM 44.3581 -84.9572 16° North 225 259 9,000 -532 Descending Minneapolis Center
Thu 11:48:58 AM 44.4189 -84.9353 14° North 225 259 8,500 -537 Descending Minneapolis Center
Thu 11:49:59 AM 44.4781 -84.9167 13° North 224 258 7,900 -732 Descending Minneapolis Center
Thu 11:51:01 AM 44.5369 -84.8953 15° North 222 255 7,000 -871 Descending Minneapolis Center
Thu 11:52:03 AM 44.6075 -84.8672 16° North 222 255 6,100 -878 Descending Minneapolis Center
Thu 11:53:04 AM 44.6656 -84.8469 14° North 222 255 5,200 -927 Descending Minneapolis Center
Thu 11:54:06 AM 44.7244 -84.8261 14° North 222 255 4,200 -968 Descending Minneapolis Center
Thu 11:56:00 AM 44.8063 -84.7776 16° North  Level FlightAware Approximate
Thu 12:03:00 PM 45.0000 -84.7000 16° North  Level FlightAware Approximate
Thu 12:04:00 PM 45.0130 -84.7034 349° North  Level Estimated
Thu 12:05:00 PM 45.0130 -84.7034 North  Level Estimated
Thu 12:06:00 PM 45.0130 -84.7034 North  Level Estimated
Thu 12:07:00 PM 45.0130 -84.7034 North  Level Estimated

Login

Don't have an account? Register now (free) for customized features, flight alerts, and more!